sensor_id;sensor_type;location;lat;lon;timestamp;temperature;humidity
37232;DHT22;23125;48.156;15.954;2022-08-21T00:00:09;22.30;61.60
37232;DHT22;23125;48.156;15.954;2022-08-21T00:02:36;22.30;61.60
37232;DHT22;23125;48.156;15.954;2022-08-21T00:05:03;22.30;61.60
37232;DHT22;23125;48.156;15.954;2022-08-21T00:07:29;22.30;61.70
37232;DHT22;23125;48.156;15.954;2022-08-21T00:09:55;22.30;61.70
37232;DHT22;23125;48.156;15.954;2022-08-21T00:12:22;22.30;61.70
37232;DHT22;23125;48.156;15.954;2022-08-21T00:14:48;22.30;61.70
37232;DHT22;23125;48.156;15.954;2022-08-21T00:17:14;22.30;61.70
37232;DHT22;23125;48.156;15.954;2022-08-21T00:19:39;22.30;61.60
37232;DHT22;23125;48.156;15.954;2022-08-21T00:22:05;22.30;61.60
37232;DHT22;23125;48.156;15.954;2022-08-21T00:24:31;22.30;61.80
37232;DHT22;23125;48.156;15.954;2022-08-21T00:26:57;22.30;61.80
37232;DHT22;23125;48.156;15.954;2022-08-21T00:29:24;22.30;61.70
37232;DHT22;23125;48.156;15.954;2022-08-21T00:31:50;22.30;61.70
37232;DHT22;23125;48.156;15.954;2022-08-21T00:34:16;22.30;61.80
37232;DHT22;23125;48.156;15.954;2022-08-21T00:36:42;22.30;61.70
37232;DHT22;23125;48.156;15.954;2022-08-21T00:39:09;22.30;61.70
37232;DHT22;23125;48.156;15.954;2022-08-21T00:41:36;22.30;61.80
37232;DHT22;23125;48.156;15.954;2022-08-21T00:44:03;22.30;61.90
37232;DHT22;23125;48.156;15.954;2022-08-21T00:46:29;22.30;61.90
37232;DHT22;23125;48.156;15.954;2022-08-21T00:48:56;22.30;61.90
37232;DHT22;23125;48.156;15.954;2022-08-21T00:51:42;22.30;62.10
37232;DHT22;23125;48.156;15.954;2022-08-21T00:54:10;22.20;62.60
37232;DHT22;23125;48.156;15.954;2022-08-21T00:56:36;22.30;61.90
37232;DHT22;23125;48.156;15.954;2022-08-21T00:59:03;22.30;62.00
37232;DHT22;23125;48.156;15.954;2022-08-21T01:01:29;22.30;61.90
37232;DHT22;23125;48.156;15.954;2022-08-21T01:03:55;22.30;62.00
37232;DHT22;23125;48.156;15.954;2022-08-21T01:06:21;22.30;61.90
37232;DHT22;23125;48.156;15.954;2022-08-21T01:08:47;22.30;62.10
37232;DHT22;23125;48.156;15.954;2022-08-21T01:11:15;22.30;62.00
37232;DHT22;23125;48.156;15.954;2022-08-21T01:13:42;22.30;62.10
37232;DHT22;23125;48.156;15.954;2022-08-21T01:16:13;22.30;62.10
37232;DHT22;23125;48.156;15.954;2022-08-21T01:18:39;22.30;61.90
37232;DHT22;23125;48.156;15.954;2022-08-21T01:21:14;22.30;61.90
37232;DHT22;23125;48.156;15.954;2022-08-21T01:23:44;22.20;61.90
37232;DHT22;23125;48.156;15.954;2022-08-21T01:26:13;22.30;62.00
37232;DHT22;23125;48.156;15.954;2022-08-21T01:28:48;22.30;62.10
37232;DHT22;23125;48.156;15.954;2022-08-21T01:31:15;22.30;62.10
37232;DHT22;23125;48.156;15.954;2022-08-21T01:33:43;22.20;62.00
37232;DHT22;23125;48.156;15.954;2022-08-21T01:36:09;22.30;62.10
37232;DHT22;23125;48.156;15.954;2022-08-21T01:38:35;22.30;62.10
37232;DHT22;23125;48.156;15.954;2022-08-21T01:41:01;22.20;62.10
37232;DHT22;23125;48.156;15.954;2022-08-21T01:43:27;22.20;62.00
37232;DHT22;23125;48.156;15.954;2022-08-21T01:45:53;22.30;62.80
37232;DHT22;23125;48.156;15.954;2022-08-21T01:48:19;22.30;62.20
37232;DHT22;23125;48.156;15.954;2022-08-21T01:50:45;22.30;62.20
37232;DHT22;23125;48.156;15.954;2022-08-21T01:53:10;22.20;62.10
37232;DHT22;23125;48.156;15.954;2022-08-21T01:55:36;22.30;62.10
37232;DHT22;23125;48.156;15.954;2022-08-21T01:58:02;22.30;62.10
37232;DHT22;23125;48.156;15.954;2022-08-21T02:00:28;22.30;62.10
37232;DHT22;23125;48.156;15.954;2022-08-21T02:02:54;22.30;62.10
37232;DHT22;23125;48.156;15.954;2022-08-21T02:05:21;22.20;62.10
37232;DHT22;23125;48.156;15.954;2022-08-21T02:07:50;22.30;62.10
37232;DHT22;23125;48.156;15.954;2022-08-21T02:10:21;22.30;62.20
37232;DHT22;23125;48.156;15.954;2022-08-21T02:12:47;22.30;62.10
37232;DHT22;23125;48.156;15.954;2022-08-21T02:15:13;22.20;62.10
37232;DHT22;23125;48.156;15.954;2022-08-21T02:17:43;22.20;62.20
37232;DHT22;23125;48.156;15.954;2022-08-21T02:20:11;22.20;62.30
37232;DHT22;23125;48.156;15.954;2022-08-21T02:22:37;22.20;62.30
37232;DHT22;23125;48.156;15.954;2022-08-21T02:25:03;22.20;62.30
37232;DHT22;23125;48.156;15.954;2022-08-21T02:27:32;22.20;62.40
37232;DHT22;23125;48.156;15.954;2022-08-21T02:30:02;22.20;62.40
37232;DHT22;23125;48.156;15.954;2022-08-21T02:32:28;22.20;62.40
37232;DHT22;23125;48.156;15.954;2022-08-21T02:34:54;22.20;62.50
37232;DHT22;23125;48.156;15.954;2022-08-21T02:37:20;22.20;62.60
37232;DHT22;23125;48.156;15.954;2022-08-21T02:39:46;22.20;63.20
37232;DHT22;23125;48.156;15.954;2022-08-21T02:42:12;22.20;62.50
37232;DHT22;23125;48.156;15.954;2022-08-21T02:44:38;22.20;62.60
37232;DHT22;23125;48.156;15.954;2022-08-21T02:47:04;22.20;62.60
37232;DHT22;23125;48.156;15.954;2022-08-21T02:49:30;22.30;62.70
37232;DHT22;23125;48.156;15.954;2022-08-21T02:51:55;22.20;62.70
37232;DHT22;23125;48.156;15.954;2022-08-21T02:54:21;22.20;62.60
37232;DHT22;23125;48.156;15.954;2022-08-21T02:56:47;22.30;62.70
37232;DHT22;23125;48.156;15.954;2022-08-21T02:59:13;22.20;62.70
37232;DHT22;23125;48.156;15.954;2022-08-21T03:01:39;22.30;62.60
37232;DHT22;23125;48.156;15.954;2022-08-21T03:04:04;22.20;62.70
37232;DHT22;23125;48.156;15.954;2022-08-21T03:06:30;22.20;62.80
37232;DHT22;23125;48.156;15.954;2022-08-21T03:08:56;22.20;62.70
37232;DHT22;23125;48.156;15.954;2022-08-21T03:11:23;22.20;62.80
37232;DHT22;23125;48.156;15.954;2022-08-21T03:13:49;22.20;62.80
37232;DHT22;23125;48.156;15.954;2022-08-21T03:16:14;22.20;62.70
37232;DHT22;23125;48.156;15.954;2022-08-21T03:18:40;22.20;62.80
37232;DHT22;23125;48.156;15.954;2022-08-21T03:21:06;22.20;62.90
37232;DHT22;23125;48.156;15.954;2022-08-21T03:23:33;22.20;63.00
37232;DHT22;23125;48.156;15.954;2022-08-21T03:25:59;22.20;63.10
37232;DHT22;23125;48.156;15.954;2022-08-21T03:28:25;22.20;63.20
37232;DHT22;23125;48.156;15.954;2022-08-21T03:30:52;22.20;63.30
37232;DHT22;23125;48.156;15.954;2022-08-21T03:33:19;22.20;63.40
37232;DHT22;23125;48.156;15.954;2022-08-21T03:35:48;22.20;63.40
37232;DHT22;23125;48.156;15.954;2022-08-21T03:38:14;22.20;63.50
37232;DHT22;23125;48.156;15.954;2022-08-21T03:40:42;22.20;63.60
37232;DHT22;23125;48.156;15.954;2022-08-21T03:43:08;22.20;63.60
37232;DHT22;23125;48.156;15.954;2022-08-21T03:45:36;22.10;63.50
37232;DHT22;23125;48.156;15.954;2022-08-21T03:48:05;22.10;63.60
37232;DHT22;23125;48.156;15.954;2022-08-21T03:50:36;22.10;63.50
37232;DHT22;23125;48.156;15.954;2022-08-21T03:53:03;22.10;63.70
37232;DHT22;23125;48.156;15.954;2022-08-21T03:55:30;22.10;63.80
37232;DHT22;23125;48.156;15.954;2022-08-21T03:57:56;22.10;63.90
37232;DHT22;23125;48.156;15.954;2022-08-21T04:00:22;22.10;64.00
37232;DHT22;23125;48.156;15.954;2022-08-21T04:02:49;22.10;64.10
37232;DHT22;23125;48.156;15.954;2022-08-21T04:05:16;22.10;64.30
37232;DHT22;23125;48.156;15.954;2022-08-21T04:08:03;22.10;64.40
37232;DHT22;23125;48.156;15.954;2022-08-21T04:10:33;22.10;64.40
37232;DHT22;23125;48.156;15.954;2022-08-21T04:13:00;22.10;64.40
37232;DHT22;23125;48.156;15.954;2022-08-21T04:15:27;22.10;64.40
37232;DHT22;23125;48.156;15.954;2022-08-21T04:17:54;22.10;64.40
37232;DHT22;23125;48.156;15.954;2022-08-21T04:20:21;22.10;64.60
37232;DHT22;23125;48.156;15.954;2022-08-21T04:22:48;22.10;64.70
37232;DHT22;23125;48.156;15.954;2022-08-21T04:25:16;22.00;64.70
37232;DHT22;23125;48.156;15.954;2022-08-21T04:27:43;22.10;64.80
37232;DHT22;23125;48.156;15.954;2022-08-21T04:30:12;22.10;64.90
37232;DHT22;23125;48.156;15.954;2022-08-21T04:32:45;22.10;64.90
37232;DHT22;23125;48.156;15.954;2022-08-21T04:35:15;22.10;64.90
37232;DHT22;23125;48.156;15.954;2022-08-21T04:37:41;22.10;64.80
37232;DHT22;23125;48.156;15.954;2022-08-21T04:40:09;22.00;64.80
37232;DHT22;23125;48.156;15.954;2022-08-21T04:42:52;22.10;65.00
37232;DHT22;23125;48.156;15.954;2022-08-21T04:45:26;22.00;65.10
37232;DHT22;23125;48.156;15.954;2022-08-21T04:47:56;22.00;65.20
37232;DHT22;23125;48.156;15.954;2022-08-21T04:50:28;22.10;65.40
37232;DHT22;23125;48.156;15.954;2022-08-21T04:52:56;22.00;65.30
37232;DHT22;23125;48.156;15.954;2022-08-21T04:55:23;22.10;65.40
37232;DHT22;23125;48.156;15.954;2022-08-21T04:57:50;22.10;65.30
37232;DHT22;23125;48.156;15.954;2022-08-21T05:00:20;22.10;65.40
37232;DHT22;23125;48.156;15.954;2022-08-21T05:02:46;22.10;65.40
37232;DHT22;23125;48.156;15.954;2022-08-21T05:05:15;22.10;65.40
37232;DHT22;23125;48.156;15.954;2022-08-21T05:07:43;22.10;65.50
37232;DHT22;23125;48.156;15.954;2022-08-21T05:10:10;22.10;65.50
37232;DHT22;23125;48.156;15.954;2022-08-21T05:12:37;22.10;65.50
37232;DHT22;23125;48.156;15.954;2022-08-21T05:15:03;22.10;65.60
37232;DHT22;23125;48.156;15.954;2022-08-21T05:17:29;22.10;65.70
37232;DHT22;23125;48.156;15.954;2022-08-21T05:19:55;22.10;65.70
37232;DHT22;23125;48.156;15.954;2022-08-21T05:22:22;22.10;65.80
37232;DHT22;23125;48.156;15.954;2022-08-21T05:24:50;22.10;65.70
37232;DHT22;23125;48.156;15.954;2022-08-21T05:27:16;22.10;65.80
37232;DHT22;23125;48.156;15.954;2022-08-21T05:29:42;22.10;65.90
37232;DHT22;23125;48.156;15.954;2022-08-21T05:32:11;22.10;66.00
37232;DHT22;23125;48.156;15.954;2022-08-21T05:34:38;22.10;66.00
37232;DHT22;23125;48.156;15.954;2022-08-21T05:37:04;22.10;65.90
37232;DHT22;23125;48.156;15.954;2022-08-21T05:39:30;22.20;66.00
37232;DHT22;23125;48.156;15.954;2022-08-21T05:41:56;22.20;65.80
37232;DHT22;23125;48.156;15.954;2022-08-21T05:44:22;22.20;65.80
37232;DHT22;23125;48.156;15.954;2022-08-21T05:46:48;22.20;65.90
37232;DHT22;23125;48.156;15.954;2022-08-21T05:49:14;22.20;66.60
37232;DHT22;23125;48.156;15.954;2022-08-21T05:51:40;22.20;66.00
37232;DHT22;23125;48.156;15.954;2022-08-21T05:54:06;22.20;66.00
37232;DHT22;23125;48.156;15.954;2022-08-21T05:56:32;22.20;66.70
37232;DHT22;23125;48.156;15.954;2022-08-21T05:58:59;22.20;66.20
37232;DHT22;23125;48.156;15.954;2022-08-21T06:01:25;22.20;66.20
37232;DHT22;23125;48.156;15.954;2022-08-21T06:03:51;22.20;66.30
37232;DHT22;23125;48.156;15.954;2022-08-21T06:06:17;22.30;67.00
37232;DHT22;23125;48.156;15.954;2022-08-21T06:08:43;22.30;66.30
37232;DHT22;23125;48.156;15.954;2022-08-21T06:11:09;22.30;66.10
37232;DHT22;23125;48.156;15.954;2022-08-21T06:13:36;22.30;66.10
37232;DHT22;23125;48.156;15.954;2022-08-21T06:16:08;22.30;66.20
37232;DHT22;23125;48.156;15.954;2022-08-21T06:18:36;22.30;66.10
37232;DHT22;23125;48.156;15.954;2022-08-21T06:21:02;22.30;66.10
37232;DHT22;23125;48.156;15.954;2022-08-21T06:23:28;22.30;66.10
37232;DHT22;23125;48.156;15.954;2022-08-21T06:25:54;22.30;66.00
37232;DHT22;23125;48.156;15.954;2022-08-21T06:28:20;22.30;66.00
37232;DHT22;23125;48.156;15.954;2022-08-21T06:30:46;22.30;66.10
37232;DHT22;23125;48.156;15.954;2022-08-21T06:33:12;22.20;66.00
37232;DHT22;23125;48.156;15.954;2022-08-21T06:35:37;22.30;66.10
37232;DHT22;23125;48.156;15.954;2022-08-21T06:38:03;22.30;66.20
37232;DHT22;23125;48.156;15.954;2022-08-21T06:40:30;22.30;66.20
37232;DHT22;23125;48.156;15.954;2022-08-21T06:42:58;22.30;66.30
37232;DHT22;23125;48.156;15.954;2022-08-21T06:45:24;22.30;66.20
37232;DHT22;23125;48.156;15.954;2022-08-21T06:47:51;22.30;66.10
37232;DHT22;23125;48.156;15.954;2022-08-21T06:50:16;22.30;66.20
37232;DHT22;23125;48.156;15.954;2022-08-21T06:52:42;22.30;66.30
37232;DHT22;23125;48.156;15.954;2022-08-21T06:55:10;22.30;66.40
37232;DHT22;23125;48.156;15.954;2022-08-21T06:57:36;22.30;66.30
37232;DHT22;23125;48.156;15.954;2022-08-21T07:00:06;22.30;66.30
37232;DHT22;23125;48.156;15.954;2022-08-21T07:02:34;22.20;66.10
37232;DHT22;23125;48.156;15.954;2022-08-21T07:05:01;22.20;66.00
37232;DHT22;23125;48.156;15.954;2022-08-21T07:07:26;22.20;66.20
37232;DHT22;23125;48.156;15.954;2022-08-21T07:09:52;22.20;66.40
37232;DHT22;23125;48.156;15.954;2022-08-21T07:12:18;22.20;66.70
37232;DHT22;23125;48.156;15.954;2022-08-21T07:14:45;22.20;66.70
37232;DHT22;23125;48.156;15.954;2022-08-21T07:17:11;22.30;67.00
37232;DHT22;23125;48.156;15.954;2022-08-21T07:19:36;22.40;67.00
37232;DHT22;23125;48.156;15.954;2022-08-21T07:22:03;22.40;67.00
37232;DHT22;23125;48.156;15.954;2022-08-21T07:24:29;22.40;67.10
37232;DHT22;23125;48.156;15.954;2022-08-21T07:26:55;22.50;67.20
37232;DHT22;23125;48.156;15.954;2022-08-21T07:29:21;22.50;67.10
37232;DHT22;23125;48.156;15.954;2022-08-21T07:31:47;22.50;66.90
37232;DHT22;23125;48.156;15.954;2022-08-21T07:34:13;22.60;66.90
37232;DHT22;23125;48.156;15.954;2022-08-21T07:36:39;22.60;66.90
37232;DHT22;23125;48.156;15.954;2022-08-21T07:39:05;22.60;66.80
37232;DHT22;23125;48.156;15.954;2022-08-21T07:41:31;22.60;66.90
37232;DHT22;23125;48.156;15.954;2022-08-21T07:43:58;22.60;66.90
37232;DHT22;23125;48.156;15.954;2022-08-21T07:46:25;22.70;67.00
37232;DHT22;23125;48.156;15.954;2022-08-21T07:48:51;22.70;67.00
37232;DHT22;23125;48.156;15.954;2022-08-21T07:51:18;22.80;66.90
37232;DHT22;23125;48.156;15.954;2022-08-21T07:53:53;22.80;67.00
37232;DHT22;23125;48.156;15.954;2022-08-21T07:56:20;22.80;66.90
37232;DHT22;23125;48.156;15.954;2022-08-21T07:58:47;22.90;66.70
37232;DHT22;23125;48.156;15.954;2022-08-21T08:01:14;22.90;66.50
37232;DHT22;23125;48.156;15.954;2022-08-21T08:03:40;22.90;66.60
37232;DHT22;23125;48.156;15.954;2022-08-21T08:06:07;22.90;67.00
37232;DHT22;23125;48.156;15.954;2022-08-21T08:08:41;22.90;67.40
37232;DHT22;23125;48.156;15.954;2022-08-21T08:11:08;23.10;67.70
37232;DHT22;23125;48.156;15.954;2022-08-21T08:13:47;23.20;67.70
37232;DHT22;23125;48.156;15.954;2022-08-21T08:16:14;23.30;67.70
37232;DHT22;23125;48.156;15.954;2022-08-21T08:18:40;23.30;67.60
37232;DHT22;23125;48.156;15.954;2022-08-21T08:21:09;23.40;67.50
37232;DHT22;23125;48.156;15.954;2022-08-21T08:23:35;23.40;67.20
37232;DHT22;23125;48.156;15.954;2022-08-21T08:26:02;23.50;67.30
37232;DHT22;23125;48.156;15.954;2022-08-21T08:28:31;23.60;67.20
37232;DHT22;23125;48.156;15.954;2022-08-21T08:30:59;23.70;66.90
37232;DHT22;23125;48.156;15.954;2022-08-21T08:33:25;23.60;66.30
37232;DHT22;23125;48.156;15.954;2022-08-21T08:35:52;23.60;66.10
37232;DHT22;23125;48.156;15.954;2022-08-21T08:38:20;23.60;66.00
37232;DHT22;23125;48.156;15.954;2022-08-21T08:41:16;23.60;65.80
37232;DHT22;23125;48.156;15.954;2022-08-21T08:43:50;23.60;66.00
37232;DHT22;23125;48.156;15.954;2022-08-21T08:46:31;23.60;65.70
37232;DHT22;23125;48.156;15.954;2022-08-21T08:49:06;23.60;65.30
37232;DHT22;23125;48.156;15.954;2022-08-21T08:51:47;23.60;65.30
37232;DHT22;23125;48.156;15.954;2022-08-21T08:54:19;23.60;65.40
37232;DHT22;23125;48.156;15.954;2022-08-21T08:56:47;23.50;65.40
37232;DHT22;23125;48.156;15.954;2022-08-21T08:59:19;23.50;65.50
37232;DHT22;23125;48.156;15.954;2022-08-21T09:01:46;23.50;65.30
37232;DHT22;23125;48.156;15.954;2022-08-21T09:04:13;23.50;65.30
37232;DHT22;23125;48.156;15.954;2022-08-21T09:06:57;23.50;65.40
37232;DHT22;23125;48.156;15.954;2022-08-21T09:15:06;23.50;66.10
37232;DHT22;23125;48.156;15.954;2022-08-21T09:17:48;23.50;66.50
37232;DHT22;23125;48.156;15.954;2022-08-21T09:20:27;23.60;66.20
37232;DHT22;23125;48.156;15.954;2022-08-21T09:28:34;23.80;66.20
37232;DHT22;23125;48.156;15.954;2022-08-21T09:31:07;23.80;65.90
37232;DHT22;23125;48.156;15.954;2022-08-21T09:33:34;23.80;66.00
37232;DHT22;23125;48.156;15.954;2022-08-21T09:36:01;23.90;66.00
37232;DHT22;23125;48.156;15.954;2022-08-21T09:38:31;23.90;66.20
37232;DHT22;23125;48.156;15.954;2022-08-21T09:41:09;24.00;66.20
37232;DHT22;23125;48.156;15.954;2022-08-21T09:43:37;24.00;65.80
37232;DHT22;23125;48.156;15.954;2022-08-21T09:46:23;24.00;65.80
37232;DHT22;23125;48.156;15.954;2022-08-21T09:48:55;24.00;65.90
37232;DHT22;23125;48.156;15.954;2022-08-21T09:51:35;24.10;65.50
37232;DHT22;23125;48.156;15.954;2022-08-21T09:56:50;24.20;65.90
37232;DHT22;23125;48.156;15.954;2022-08-21T09:59:36;24.30;66.10
37232;DHT22;23125;48.156;15.954;2022-08-21T10:04:52;24.50;66.20
37232;DHT22;23125;48.156;15.954;2022-08-21T10:07:21;24.50;65.90
37232;DHT22;23125;48.156;15.954;2022-08-21T10:10:03;24.50;65.50
37232;DHT22;23125;48.156;15.954;2022-08-21T10:12:59;24.60;65.40
37232;DHT22;23125;48.156;15.954;2022-08-21T10:25:52;24.90;65.80
37232;DHT22;23125;48.156;15.954;2022-08-21T10:38:59;25.40;65.30
37232;DHT22;23125;48.156;15.954;2022-08-21T10:41:36;25.40;64.70
37232;DHT22;23125;48.156;15.954;2022-08-21T10:44:08;25.50;64.20
37232;DHT22;23125;48.156;15.954;2022-08-21T10:46:54;25.40;63.50
37232;DHT22;23125;48.156;15.954;2022-08-21T10:52:42;25.40;63.70
37232;DHT22;23125;48.156;15.954;2022-08-21T10:54:52;25.50;63.70
37232;DHT22;23125;48.156;15.954;2022-08-21T11:00:48;25.50;63.20
37232;DHT22;23125;48.156;15.954;2022-08-21T11:03:54;25.60;63.10
37232;DHT22;23125;48.156;15.954;2022-08-21T11:06:25;25.50;62.70
37232;DHT22;23125;48.156;15.954;2022-08-21T11:08:58;25.50;62.20
37232;DHT22;23125;48.156;15.954;2022-08-21T11:17:42;25.20;61.80
37232;DHT22;23125;48.156;15.954;2022-08-21T11:20:28;25.20;61.70
37232;DHT22;23125;48.156;15.954;2022-08-21T11:23:01;25.10;62.30
37232;DHT22;23125;48.156;15.954;2022-08-21T11:25:46;25.20;63.00
37232;DHT22;23125;48.156;15.954;2022-08-21T11:33:46;25.30;63.00
37232;DHT22;23125;48.156;15.954;2022-08-21T11:36:34;25.30;62.40
37232;DHT22;23125;48.156;15.954;2022-08-21T11:39:12;25.40;62.40
37232;DHT22;23125;48.156;15.954;2022-08-21T11:41:43;25.30;62.00
37232;DHT22;23125;48.156;15.954;2022-08-21T11:44:29;25.40;62.30
37232;DHT22;23125;48.156;15.954;2022-08-21T11:50:16;25.30;61.90
37232;DHT22;23125;48.156;15.954;2022-08-21T11:52:53;25.30;61.80
37232;DHT22;23125;48.156;15.954;2022-08-21T11:55:34;25.30;61.80
37232;DHT22;23125;48.156;15.954;2022-08-21T11:58:10;25.30;61.50
37232;DHT22;23125;48.156;15.954;2022-08-21T12:00:45;25.40;61.30
37232;DHT22;23125;48.156;15.954;2022-08-21T12:06:02;25.30;61.30
37232;DHT22;23125;48.156;15.954;2022-08-21T12:08:35;25.30;61.40
37232;DHT22;23125;48.156;15.954;2022-08-21T12:16:36;25.40;61.50
37232;DHT22;23125;48.156;15.954;2022-08-21T12:21:33;25.40;61.20
37232;DHT22;23125;48.156;15.954;2022-08-21T12:24:48;25.50;61.50
37232;DHT22;23125;48.156;15.954;2022-08-21T12:26:51;25.50;61.80
37232;DHT22;23125;48.156;15.954;2022-08-21T12:29:24;25.60;61.70
37232;DHT22;23125;48.156;15.954;2022-08-21T12:31:54;25.60;61.30
37232;DHT22;23125;48.156;15.954;2022-08-21T12:34:25;25.70;61.20
37232;DHT22;23125;48.156;15.954;2022-08-21T12:37:00;25.70;61.10
37232;DHT22;23125;48.156;15.954;2022-08-21T12:39:29;25.70;61.00
37232;DHT22;23125;48.156;15.954;2022-08-21T12:42:01;25.70;60.40
37232;DHT22;23125;48.156;15.954;2022-08-21T12:44:42;25.70;60.20
37232;DHT22;23125;48.156;15.954;2022-08-21T12:47:31;25.60;60.00
37232;DHT22;23125;48.156;15.954;2022-08-21T12:50:13;25.60;60.40
37232;DHT22;23125;48.156;15.954;2022-08-21T12:52:47;25.60;60.30
37232;DHT22;23125;48.156;15.954;2022-08-21T12:55:15;25.60;60.00
37232;DHT22;23125;48.156;15.954;2022-08-21T12:57:42;25.60;60.00
37232;DHT22;23125;48.156;15.954;2022-08-21T13:00:12;25.60;60.10
37232;DHT22;23125;48.156;15.954;2022-08-21T13:02:43;25.60;60.20
37232;DHT22;23125;48.156;15.954;2022-08-21T13:05:35;25.60;60.00
37232;DHT22;23125;48.156;15.954;2022-08-21T13:08:07;25.50;59.80
37232;DHT22;23125;48.156;15.954;2022-08-21T13:10:35;25.50;59.70
37232;DHT22;23125;48.156;15.954;2022-08-21T13:13:10;25.50;59.80
37232;DHT22;23125;48.156;15.954;2022-08-21T13:15:40;25.50;59.70
37232;DHT22;23125;48.156;15.954;2022-08-21T13:18:06;25.50;59.30
37232;DHT22;23125;48.156;15.954;2022-08-21T13:20:38;25.40;59.10
37232;DHT22;23125;48.156;15.954;2022-08-21T13:23:26;25.40;59.20
37232;DHT22;23125;48.156;15.954;2022-08-21T13:25:53;25.30;59.20
37232;DHT22;23125;48.156;15.954;2022-08-21T13:28:19;25.40;59.60
37232;DHT22;23125;48.156;15.954;2022-08-21T13:30:51;25.40;59.70
37232;DHT22;23125;48.156;15.954;2022-08-21T13:33:22;25.40;59.90
37232;DHT22;23125;48.156;15.954;2022-08-21T13:35:52;25.40;59.70
37232;DHT22;23125;48.156;15.954;2022-08-21T13:38:26;25.50;59.80
37232;DHT22;23125;48.156;15.954;2022-08-21T13:41:01;25.50;60.00
37232;DHT22;23125;48.156;15.954;2022-08-21T13:43:31;25.60;60.10
37232;DHT22;23125;48.156;15.954;2022-08-21T13:45:58;25.60;59.60
37232;DHT22;23125;48.156;15.954;2022-08-21T13:48:29;25.70;59.50
37232;DHT22;23125;48.156;15.954;2022-08-21T13:50:57;25.70;59.30
37232;DHT22;23125;48.156;15.954;2022-08-21T13:53:36;25.70;59.00
37232;DHT22;23125;48.156;15.954;2022-08-21T13:56:04;25.70;58.80
37232;DHT22;23125;48.156;15.954;2022-08-21T13:58:48;25.70;58.90
37232;DHT22;23125;48.156;15.954;2022-08-21T14:01:36;25.70;59.10
37232;DHT22;23125;48.156;15.954;2022-08-21T14:04:20;25.70;58.90
37232;DHT22;23125;48.156;15.954;2022-08-21T14:06:46;25.70;58.50
37232;DHT22;23125;48.156;15.954;2022-08-21T14:11:56;25.60;58.00
37232;DHT22;23125;48.156;15.954;2022-08-21T14:14:26;25.50;57.80
37232;DHT22;23125;48.156;15.954;2022-08-21T14:16:58;25.50;57.80
37232;DHT22;23125;48.156;15.954;2022-08-21T14:19:35;25.40;57.70
37232;DHT22;23125;48.156;15.954;2022-08-21T14:24:47;25.30;57.90
37232;DHT22;23125;48.156;15.954;2022-08-21T14:27:17;25.30;57.70
37232;DHT22;23125;48.156;15.954;2022-08-21T14:29:44;25.20;57.50
37232;DHT22;23125;48.156;15.954;2022-08-21T14:32:14;25.20;57.80
37232;DHT22;23125;48.156;15.954;2022-08-21T14:34:41;25.10;57.80
37232;DHT22;23125;48.156;15.954;2022-08-21T14:37:07;25.10;57.90
37232;DHT22;23125;48.156;15.954;2022-08-21T14:39:33;25.10;58.00
37232;DHT22;23125;48.156;15.954;2022-08-21T14:41:59;25.00;58.00
37232;DHT22;23125;48.156;15.954;2022-08-21T14:44:26;25.00;58.10
37232;DHT22;23125;48.156;15.954;2022-08-21T14:46:53;25.00;58.40
37232;DHT22;23125;48.156;15.954;2022-08-21T14:49:21;25.00;58.60
37232;DHT22;23125;48.156;15.954;2022-08-21T14:51:47;25.00;58.70
37232;DHT22;23125;48.156;15.954;2022-08-21T14:54:18;25.10;58.80
37232;DHT22;23125;48.156;15.954;2022-08-21T14:56:44;25.10;58.90
37232;DHT22;23125;48.156;15.954;2022-08-21T14:59:10;25.10;59.10
37232;DHT22;23125;48.156;15.954;2022-08-21T15:01:38;25.10;59.50
37232;DHT22;23125;48.156;15.954;2022-08-21T15:04:04;25.20;58.90
37232;DHT22;23125;48.156;15.954;2022-08-21T15:06:30;25.20;59.00
37232;DHT22;23125;48.156;15.954;2022-08-21T15:08:57;25.20;58.60
37232;DHT22;23125;48.156;15.954;2022-08-21T15:11:24;25.20;58.50
37232;DHT22;23125;48.156;15.954;2022-08-21T15:13:55;25.20;58.50
37232;DHT22;23125;48.156;15.954;2022-08-21T15:16:23;25.10;58.40
37232;DHT22;23125;48.156;15.954;2022-08-21T15:18:49;25.10;58.30
37232;DHT22;23125;48.156;15.954;2022-08-21T15:21:15;25.00;58.30
37232;DHT22;23125;48.156;15.954;2022-08-21T15:23:41;25.00;58.40
37232;DHT22;23125;48.156;15.954;2022-08-21T15:26:06;25.00;58.60
37232;DHT22;23125;48.156;15.954;2022-08-21T15:28:34;24.90;58.50
37232;DHT22;23125;48.156;15.954;2022-08-21T15:31:00;24.90;58.70
37232;DHT22;23125;48.156;15.954;2022-08-21T15:33:27;24.90;58.70
37232;DHT22;23125;48.156;15.954;2022-08-21T15:35:53;24.90;58.80
37232;DHT22;23125;48.156;15.954;2022-08-21T15:38:18;24.90;58.70
37232;DHT22;23125;48.156;15.954;2022-08-21T15:40:45;24.90;58.70
37232;DHT22;23125;48.156;15.954;2022-08-21T15:43:29;24.80;58.80
37232;DHT22;23125;48.156;15.954;2022-08-21T15:45:58;24.80;58.80
37232;DHT22;23125;48.156;15.954;2022-08-21T15:48:25;24.80;59.10
37232;DHT22;23125;48.156;15.954;2022-08-21T15:50:52;24.80;59.50
37232;DHT22;23125;48.156;15.954;2022-08-21T15:53:18;24.80;59.40
37232;DHT22;23125;48.156;15.954;2022-08-21T15:55:44;24.90;60.00
37232;DHT22;23125;48.156;15.954;2022-08-21T15:58:14;24.90;59.30
37232;DHT22;23125;48.156;15.954;2022-08-21T16:00:42;24.90;59.90
37232;DHT22;23125;48.156;15.954;2022-08-21T16:03:12;24.90;59.30
37232;DHT22;23125;48.156;15.954;2022-08-21T16:05:41;25.00;59.40
37232;DHT22;23125;48.156;15.954;2022-08-21T16:08:08;25.00;59.40
37232;DHT22;23125;48.156;15.954;2022-08-21T16:10:36;25.00;59.20
37232;DHT22;23125;48.156;15.954;2022-08-21T16:13:05;25.00;59.30
37232;DHT22;23125;48.156;15.954;2022-08-21T16:15:32;25.00;59.40
37232;DHT22;23125;48.156;15.954;2022-08-21T16:17:58;25.00;59.40
37232;DHT22;23125;48.156;15.954;2022-08-21T16:20:27;25.00;59.40
37232;DHT22;23125;48.156;15.954;2022-08-21T16:22:55;25.00;59.40
37232;DHT22;23125;48.156;15.954;2022-08-21T16:25:21;25.00;59.40
37232;DHT22;23125;48.156;15.954;2022-08-21T16:27:51;25.00;59.30
37232;DHT22;23125;48.156;15.954;2022-08-21T16:30:19;25.00;59.30
37232;DHT22;23125;48.156;15.954;2022-08-21T16:32:45;25.00;59.30
37232;DHT22;23125;48.156;15.954;2022-08-21T16:35:15;25.00;59.30
37232;DHT22;23125;48.156;15.954;2022-08-21T16:37:41;25.00;59.30
37232;DHT22;23125;48.156;15.954;2022-08-21T16:40:09;25.00;59.20
37232;DHT22;23125;48.156;15.954;2022-08-21T16:42:36;24.90;59.20